Time;durP1;ratioP1;P1;durP2;ratioP2;P2;SDS_P1;SDS_P2;PMS_P1;PMS_P2;Temp;Humidity;BMP_temperature;BMP_pressure;BME280_temperature;BME280_humidity;BME280_pressure;Samples;Min_cycle;Max_cycle;Signal;HPM_P1;HPM_P2
2022/12/13 00:02:08;;;;;;;35.92;14.90;;;;;;;-4.08;100.00;101167.97;5053497;28;20025;-70
2022/12/13 00:04:33;;;;;;;39.58;15.15;;;;;;;-4.09;100.00;101166.16;5046617;28;20022;-70
2022/12/13 00:06:59;;;;;;;41.38;16.83;;;;;;;-3.99;100.00;101169.47;5050045;28;20103;-70
2022/12/13 00:09:24;;;;;;;33.85;15.10;;;;;;;-4.08;100.00;101167.09;5053887;28;20106;-70
2022/12/13 00:11:51;;;;;;;27.63;13.82;;;;;;;-4.14;100.00;101167.47;5051633;28;20024;-70
2022/12/13 00:14:16;;;;;;;34.65;16.25;;;;;;;-4.18;100.00;101169.69;5050138;28;20022;-70
2022/12/13 00:16:46;;;;;;;35.33;16.35;;;;;;;-4.24;100.00;101154.66;5049128;28;20021;-70
2022/12/13 00:19:12;;;;;;;33.20;15.93;;;;;;;-4.24;100.00;101167.50;5045037;28;20037;-70
2022/12/13 00:21:37;;;;;;;35.85;14.93;;;;;;;-4.25;100.00;101169.16;5048908;28;20027;-70
2022/12/13 00:24:05;;;;;;;29.33;15.07;;;;;;;-4.12;100.00;101167.63;5047921;28;20029;-71
2022/12/13 00:26:31;;;;;;;40.90;15.25;;;;;;;-4.26;100.00;101164.81;5048167;28;20508;-70
2022/12/13 00:29:05;;;;;;;39.28;15.45;;;;;;;-4.30;100.00;101164.44;5048062;28;20524;-70
2022/12/13 00:31:31;;;;;;;32.15;14.48;;;;;;;-4.24;100.00;101154.66;5051777;28;20108;-70
2022/12/13 00:33:57;;;;;;;33.60;16.17;;;;;;;-4.24;100.00;101157.25;5050640;28;20104;-69
2022/12/13 00:36:23;;;;;;;30.90;14.45;;;;;;;-4.34;100.00;101162.38;5052688;28;20029;-69
2022/12/13 00:38:59;;;;;;;30.17;14.88;;;;;;;-4.33;100.00;101154.81;5053185;28;20086;-70
2022/12/13 00:41:27;;;;;;;34.00;15.40;;;;;;;-4.33;100.00;101159.06;5053612;28;20039;-69
2022/12/13 00:43:52;;;;;;;40.78;15.23;;;;;;;-4.33;100.00;101153.91;5053251;28;20039;-69
2022/12/13 00:46:19;;;;;;;33.85;15.60;;;;;;;-4.38;100.00;101150.06;5052119;28;20108;-68
2022/12/13 00:48:49;;;;;;;30.58;14.48;;;;;;;-4.42;100.00;101143.81;5052675;28;20029;-69
2022/12/13 00:51:15;;;;;;;41.00;15.50;;;;;;;-4.45;100.00;101138.41;5054834;28;20047;-70
2022/12/13 00:53:40;;;;;;;29.55;13.57;;;;;;;-4.46;100.00;101141.75;5043644;28;20028;-69
2022/12/13 00:56:14;;;;;;;31.38;13.25;;;;;;;-4.49;100.00;101137.28;5048542;28;20029;-69
2022/12/13 00:58:40;;;;;;;26.15;12.77;;;;;;;-4.52;100.00;101141.25;5042253;28;20512;-68
2022/12/13 01:01:08;;;;;;;32.38;14.93;;;;;;;-4.58;100.00;101139.97;5044053;28;20109;-70
2022/12/13 01:03:34;;;;;;;32.17;14.40;;;;;;;-4.52;100.00;101141.25;5045867;28;20057;-70
2022/12/13 01:06:00;;;;;;;33.88;14.88;;;;;;;-4.52;100.00;101131.88;5049868;28;20515;-69
2022/12/13 01:08:27;;;;;;;28.92;14.73;;;;;;;-4.57;100.00;101135.75;5049635;28;20021;-69
2022/12/13 01:10:53;;;;;;;24.90;13.90;;;;;;;-4.62;100.00;101134.47;5047312;28;20040;-69
2022/12/13 01:13:18;;;;;;;33.20;14.38;;;;;;;-4.65;100.00;101135.13;5047289;28;20091;-69
2022/12/13 01:15:45;;;;;;;31.20;14.25;;;;;;;-4.69;100.00;101135.63;5051184;28;20405;-69
2022/12/13 01:18:13;;;;;;;31.25;15.20;;;;;;;-4.72;100.00;101137.03;5052229;28;20037;-69
2022/12/13 01:20:39;;;;;;;27.50;13.68;;;;;;;-4.79;100.00;101139.13;5057761;28;20017;-69
2022/12/13 01:23:05;;;;;;;37.13;14.63;;;;;;;-4.90;100.00;101134.75;5050381;28;20487;-70
2022/12/13 01:25:32;;;;;;;26.70;13.05;;;;;;;-4.93;100.00;101129.38;5048116;28;20021;-70
2022/12/13 01:28:00;;;;;;;31.80;14.82;;;;;;;-4.91;100.00;101125.25;5044909;28;20021;-69
2022/12/13 01:30:25;;;;;;;27.83;14.13;;;;;;;-4.82;100.00;101130.25;5040663;28;20017;-68
2022/12/13 01:32:51;;;;;;;33.63;14.80;;;;;;;-4.83;100.00;101119.09;5035507;28;20489;-69
2022/12/13 01:35:16;;;;;;;27.60;13.95;;;;;;;-4.93;100.00;101124.25;5046945;28;20040;-69
2022/12/13 01:37:41;;;;;;;31.63;14.73;;;;;;;-5.02;100.00;101118.34;5051588;28;20099;-69
2022/12/13 01:40:08;;;;;;;31.73;14.32;;;;;;;-5.08;100.00;101122.19;5040542;28;20384;-69
2022/12/13 01:42:36;;;;;;;31.95;14.23;;;;;;;-5.02;100.00;101118.34;5050760;28;20060;-69
2022/12/13 01:45:06;;;;;;;23.95;12.90;;;;;;;-4.93;100.00;101116.53;5048517;28;20090;-71
2022/12/13 01:48:03;;;;;;;32.05;13.90;;;;;;;-4.91;100.00;101117.53;5046905;28;20033;-68
2022/12/13 01:50:36;;;;;;;29.10;13.73;;;;;;;-5.04;100.00;101122.47;5037363;28;20384;-69
2022/12/13 01:53:06;;;;;;;34.33;14.43;;;;;;;-5.01;100.00;101122.72;5043231;28;20416;-69
2022/12/13 01:55:35;;;;;;;32.45;12.65;;;;;;;-4.85;100.00;101123.19;5046105;28;20124;-70
2022/12/13 01:58:03;;;;;;;33.17;13.88;;;;;;;-4.89;100.00;101126.28;5057869;28;20081;-69
2022/12/13 02:00:29;;;;;;;27.75;13.57;;;;;;;-4.89;100.00;101131.41;5046402;28;20427;-70
2022/12/13 02:02:57;;;;;;;32.65;14.45;;;;;;;-4.85;100.00;101128.34;5037430;28;20029;-69
2022/12/13 02:05:32;;;;;;;36.33;13.90;;;;;;;-4.96;100.00;101126.56;5043431;28;20024;-68
2022/12/13 02:08:00;;;;;;;28.67;13.15;;;;;;;-5.00;100.00;101120.25;5052306;28;20025;-68
2022/12/13 02:10:26;;;;;;;35.28;13.70;;;;;;;-4.89;100.00;101126.28;5049273;28;20091;-71
2022/12/13 02:12:51;;;;;;;34.15;12.63;;;;;;;-4.83;100.00;101128.44;5048572;28;20826;-68
2022/12/13 02:15:18;;;;;;;30.40;14.18;;;;;;;-4.91;100.00;101120.09;5046204;28;20052;-70
2022/12/13 02:18:02;;;;;;;32.60;12.88;;;;;;;-5.01;100.00;101120.13;5037742;28;20550;-69
2022/12/13 02:21:00;;;;;;;;;;;;;;;-5.13;100.00;101120.91;5052463;28;20086;-69
2022/12/13 02:23:25;;;;;;;28.35;13.05;;;;;;;-5.01;100.00;101117.56;5014988;28;20380;-68
2022/12/13 02:26:17;;;;;;;22.95;11.60;;;;;;;-5.03;100.00;101113.97;5046283;28;20053;-68
2022/12/13 02:29:16;;;;;;;31.27;13.48;;;;;;;-5.09;100.00;101117.84;5050179;28;20078;-69
2022/12/13 02:31:46;;;;;;;29.98;13.30;;;;;;;-5.03;100.00;101108.84;5048434;28;20057;-68
2022/12/13 02:34:25;;;;;;;29.02;12.75;;;;;;;-4.98;100.00;101107.56;5049957;28;20781;-68
2022/12/13 02:37:09;;;;;;;25.67;12.15;;;;;;;-5.14;100.00;101108.84;5035564;28;20044;-68
2022/12/13 02:39:42;;;;;;;26.55;13.50;;;;;;;-5.23;100.00;101105.50;5054008;28;20353;-69
2022/12/13 02:42:23;;;;;;;32.33;13.48;;;;;;;-5.18;100.00;101104.25;5049926;28;20059;-68
2022/12/13 02:45:08;;;;;;;35.17;13.38;;;;;;;-5.02;100.00;101096.13;5049760;28;20507;-68
2022/12/13 02:47:36;;;;;;;25.45;12.23;;;;;;;-5.13;100.00;101096.91;5046915;28;20025;-68
2022/12/13 02:50:05;;;;;;;32.20;11.45;;;;;;;-5.11;100.00;101093.72;5050781;28;20037;-68
2022/12/13 02:52:31;;;;;;;34.10;12.95;;;;;;;-5.12;100.00;101093.59;5049984;28;20031;-67
2022/12/13 02:54:58;;;;;;;27.90;13.35;;;;;;;-5.08;100.00;101093.06;5050873;28;20028;-70
2022/12/13 02:57:35;;;;;;;29.88;13.05;;;;;;;-5.11;100.00;101093.72;5041850;28;20025;-67
2022/12/13 03:00:24;;;;;;;26.88;12.38;;;;;;;-4.98;100.00;101097.28;5050193;28;20429;-69
2022/12/13 03:03:20;;;;;;;26.80;13.55;;;;;;;-4.97;100.00;101093.97;5041575;28;20036;-69
2022/12/13 03:09:06;;;;;;;25.83;12.90;;;;;;;-5.14;100.00;101092.53;5052082;28;20044;-68
2022/12/13 03:14:48;;;;;;;26.35;11.75;;;;;;;-5.17;100.00;101090.63;5024233;28;20400;-69
2022/12/13 03:17:15;;;;;;;;;;;;;;;-5.25;100.00;101091.66;5047787;28;20028;-68
2022/12/13 03:19:41;;;;;;;31.17;12.32;;;;;;;-5.28;100.00;101099.09;5041825;28;19927;-69
2022/12/13 03:22:06;;;;;;;23.23;11.05;;;;;;;-5.36;100.00;101093.31;5041864;28;20385;-69
2022/12/13 03:24:32;;;;;;;31.67;12.88;;;;;;;-5.35;100.00;101091.66;5045381;28;20506;-69
2022/12/13 03:26:57;;;;;;;31.50;13.75;;;;;;;-5.33;100.00;101103.84;5047680;28;20112;-69
2022/12/13 03:29:23;;;;;;;25.58;11.73;;;;;;;-5.27;100.00;101103.47;5048083;28;20094;-68
2022/12/13 03:31:48;;;;;;;26.20;13.35;;;;;;;-5.29;100.00;101099.84;5048703;28;20048;-69
2022/12/13 03:34:14;;;;;;;32.92;13.38;;;;;;;-5.34;100.00;101103.72;5064983;28;20107;-69
2022/12/13 03:36:39;;;;;;;26.67;12.43;;;;;;;-5.40;100.00;101098.06;5046608;28;20449;-68
2022/12/13 03:39:04;;;;;;;23.17;11.88;;;;;;;-5.40;100.00;101098.06;5051479;28;20028;-68
2022/12/13 03:41:31;;;;;;;29.58;12.23;;;;;;;-5.45;100.00;101097.69;5051998;28;20067;-68
2022/12/13 03:44:07;;;;;;;30.77;12.43;;;;;;;-5.42;100.00;101093.69;5044212;28;20055;-68
2022/12/13 03:46:32;;;;;;;33.33;12.80;;;;;;;-5.37;100.00;101090.63;5050115;28;20070;-68
2022/12/13 03:48:58;;;;;;;33.63;13.77;;;;;;;-5.35;100.00;101092.56;5048673;28;20476;-68
2022/12/13 03:51:23;;;;;;;28.60;12.57;;;;;;;-5.42;100.00;101098.81;5051694;28;20025;-68
2022/12/13 03:53:48;;;;;;;32.30;13.05;;;;;;;-5.32;100.00;101092.81;5047787;28;20052;-68
2022/12/13 03:56:14;;;;;;;26.23;12.57;;;;;;;-5.44;100.00;101090.13;5052613;28;20064;-68
2022/12/13 03:58:41;;;;;;;31.50;12.88;;;;;;;-5.38;100.00;101094.88;5050729;28;20088;-68
2022/12/13 04:01:12;;;;;;;28.55;13.65;;;;;;;-5.43;100.00;101089.31;5079745;28;20040;-68
2022/12/13 04:03:39;;;;;;;27.80;13.15;;;;;;;-5.44;100.00;101100.38;5044261;28;20307;-66
2022/12/13 04:06:04;;;;;;;28.48;14.13;;;;;;;-5.44;100.00;101094.34;5053030;28;20120;-68
2022/12/13 04:08:30;;;;;;;24.45;12.85;;;;;;;-5.37;100.00;101086.41;5042689;28;20516;-68
2022/12/13 04:10:55;;;;;;;30.42;12.70;;;;;;;-5.48;100.00;101097.41;5060985;28;20063;-68
2022/12/13 04:13:32;;;;;;;28.98;13.85;;;;;;;-5.53;100.00;101094.47;5052765;28;20125;-67
2022/12/13 04:15:58;;;;;;;31.58;13.05;;;;;;;-5.32;100.00;101094.47;5052863;28;20020;-67
2022/12/13 04:18:23;;;;;;;28.52;12.90;;;;;;;-5.39;100.00;101093.06;5055316;28;20035;-68
2022/12/13 04:20:49;;;;;;;27.95;13.95;;;;;;;-5.44;100.00;101099.47;5054316;28;20445;-68
2022/12/13 04:23:14;;;;;;;28.52;13.68;;;;;;;-5.52;100.00;101090.22;5050653;28;20103;-69
2022/12/13 04:25:40;;;;;;;38.80;14.27;;;;;;;-5.43;100.00;101086.75;5045459;28;20053;-67
2022/12/13 04:28:06;;;;;;;27.92;12.50;;;;;;;-5.51;100.00;101082.66;5051195;28;20524;-68
2022/12/13 04:30:31;;;;;;;30.40;12.40;;;;;;;-5.51;100.00;101076.66;5045560;28;20031;-68
2022/12/13 04:32:57;;;;;;;19.42;11.35;;;;;;;-5.51;100.00;101074.09;5045513;28;20380;-68
2022/12/13 04:35:22;;;;;;;25.75;11.35;;;;;;;-5.64;100.00;101082.41;5056098;28;20036;-67
2022/12/13 04:37:47;;;;;;;27.65;13.05;;;;;;;-5.62;100.00;101076.63;5047594;28;20044;-67
2022/12/13 04:40:13;;;;;;;33.08;13.27;;;;;;;-5.64;100.00;101074.72;5050082;28;20025;-68
2022/12/13 04:42:38;;;;;;;27.52;12.98;;;;;;;-5.62;100.00;101080.88;5046639;28;20025;-68
2022/12/13 04:45:04;;;;;;;24.48;12.35;;;;;;;-5.73;100.00;101082.50;5047089;28;20392;-67
2022/12/13 04:47:30;;;;;;;27.05;11.90;;;;;;;-5.73;100.00;101079.06;5048115;28;20029;-68
2022/12/13 04:49:55;;;;;;;28.67;12.02;;;;;;;-5.76;100.00;101079.69;5047207;28;20020;-68
2022/12/13 04:52:20;;;;;;;32.47;12.32;;;;;;;-5.82;100.00;101085.19;5039724;28;20067;-67
2022/12/13 04:54:46;;;;;;;37.28;13.77;;;;;;;-5.87;100.00;101089.03;5051391;28;20070;-67
2022/12/13 04:57:12;;;;;;;36.78;12.40;;;;;;;-5.88;100.00;101079.53;5048246;28;20025;-67
2022/12/13 04:59:39;;;;;;;29.88;12.43;;;;;;;-5.88;100.00;101082.09;5052020;28;20053;-67
2022/12/13 05:02:05;;;;;;;29.30;12.10;;;;;;;-5.90;100.00;101080.16;5047925;28;20068;-67
2022/12/13 05:04:31;;;;;;;24.25;11.95;;;;;;;-5.84;100.00;101079.03;5048313;28;20225;-68
2022/12/13 05:06:56;;;;;;;27.33;13.13;;;;;;;-5.81;100.00;101076.72;5046474;28;20501;-68
2022/12/13 05:09:22;;;;;;;31.67;12.20;;;;;;;-5.78;100.00;101073.53;5040620;28;20111;-67
2022/12/13 05:11:48;;;;;;;27.77;12.35;;;;;;;-5.78;100.00;101071.88;5064588;28;20029;-66
2022/12/13 05:14:13;;;;;;;28.40;13.25;;;;;;;-5.89;100.00;101077.72;5049404;28;20178;-68
2022/12/13 05:16:39;;;;;;;24.08;10.48;;;;;;;-5.84;100.00;101080.72;5057315;28;20024;-67
2022/12/13 05:19:04;;;;;;;25.13;12.23;;;;;;;-5.86;100.00;101067.78;5072053;28;20361;-67
2022/12/13 05:21:29;;;;;;;32.42;13.15;;;;;;;-5.80;100.00;101072.50;5055497;28;20029;-66
2022/12/13 05:23:55;;;;;;;23.20;10.30;;;;;;;-5.81;100.00;101070.72;5057526;28;20021;-67
2022/12/13 05:26:20;;;;;;;33.97;14.52;;;;;;;-5.79;100.00;101064.94;5051671;28;20037;-68
2022/12/13 05:28:45;;;;;;;25.45;12.77;;;;;;;-5.80;100.00;101073.41;5051952;28;20523;-66
2022/12/13 05:31:11;;;;;;;24.40;12.65;;;;;;;-5.72;100.00;101068.03;5043451;28;20484;-66
2022/12/13 05:33:37;;;;;;;29.92;14.00;;;;;;;-5.80;100.00;101068.28;5043888;28;20033;-67
2022/12/13 05:36:04;;;;;;;23.50;12.00;;;;;;;-5.80;100.00;101077.63;5050844;28;20428;-67
2022/12/13 05:38:30;;;;;;;32.20;13.55;;;;;;;-5.78;100.00;101069.31;5051270;28;20453;-68
2022/12/13 05:40:56;;;;;;;28.48;13.45;;;;;;;-5.80;100.00;101078.53;5049176;28;20067;-68
2022/12/13 05:43:22;;;;;;;30.75;12.10;;;;;;;-5.81;100.00;101076.72;5052197;28;20032;-68
2022/12/13 05:45:48;;;;;;;29.80;13.05;;;;;;;-5.84;100.00;101073.03;5033720;28;20040;-68
2022/12/13 05:48:14;;;;;;;31.88;11.90;;;;;;;-5.83;100.00;101073.16;5047782;28;20025;-68
2022/12/13 05:50:39;;;;;;;31.08;12.40;;;;;;;-5.94;100.00;101058.50;5039080;28;20057;-67
2022/12/13 05:53:05;;;;;;;30.50;12.38;;;;;;;-5.89;100.00;101062.34;5043475;28;20032;-68
2022/12/13 05:55:31;;;;;;;28.55;13.70;;;;;;;-5.83;100.00;101057.78;5040805;28;20354;-67
2022/12/13 05:57:57;;;;;;;34.60;13.05;;;;;;;-5.85;100.00;101066.97;5057264;28;20020;-68
2022/12/13 06:00:23;;;;;;;28.58;14.65;;;;;;;-5.89;100.00;101052.09;5046233;28;20107;-67
2022/12/13 06:02:48;;;;;;;27.45;13.60;;;;;;;-5.85;100.00;101058.41;5047682;28;20116;-68
2022/12/13 06:05:13;;;;;;;29.98;12.25;;;;;;;-5.92;100.00;101063.00;5049005;28;20112;-67
2022/12/13 06:07:39;;;;;;;24.70;12.68;;;;;;;-5.97;100.00;101053.13;5035909;28;20470;-66
2022/12/13 06:10:05;;;;;;;35.20;14.90;;;;;;;-6.08;100.00;101048.78;5050351;28;20025;-68
2022/12/13 06:12:32;;;;;;;26.73;12.63;;;;;;;-6.11;100.00;101039.16;5043774;28;20040;-67
2022/12/13 06:14:58;;;;;;;31.70;13.60;;;;;;;-6.15;100.00;101044.78;5046980;28;20063;-67
2022/12/13 06:17:24;;;;;;;32.40;11.75;;;;;;;-6.14;100.00;101047.47;5048833;28;20017;-68
2022/12/13 06:19:52;;;;;;;25.55;12.52;;;;;;;-6.06;100.00;101047.22;5050643;28;20115;-69
2022/12/13 06:22:17;;;;;;;30.90;13.98;;;;;;;-6.05;100.00;101054.16;5051881;28;20025;-69
2022/12/13 06:24:43;;;;;;;31.25;12.95;;;;;;;-5.97;100.00;101054.03;5047283;28;20056;-69
2022/12/13 06:27:08;;;;;;;31.42;14.10;;;;;;;-5.98;100.00;101048.78;5049669;28;20028;-69
2022/12/13 06:29:34;;;;;;;34.15;14.20;;;;;;;-6.04;100.00;101049.16;5051012;28;20036;-68
2022/12/13 06:32:01;;;;;;;28.75;14.00;;;;;;;-6.00;100.00;101055.47;5050658;28;20082;-69
2022/12/13 06:34:27;;;;;;;40.63;14.50;;;;;;;-6.06;100.00;101052.34;5036455;28;20033;-69
2022/12/13 06:36:53;;;;;;;28.90;13.60;;;;;;;-5.95;100.00;101056.72;5051978;28;20028;-68
2022/12/13 06:39:18;;;;;;;32.92;14.40;;;;;;;-5.95;100.00;101047.34;5047444;28;20029;-68
2022/12/13 06:41:44;;;;;;;27.30;13.00;;;;;;;-6.01;100.00;101051.09;5045167;28;20449;-66
2022/12/13 06:44:10;;;;;;;36.30;13.60;;;;;;;-5.98;100.00;101049.69;5051847;28;20110;-66
2022/12/13 06:46:35;;;;;;;33.92;14.75;;;;;;;-6.00;100.00;101052.91;5046138;28;20028;-78
2022/12/13 06:49:01;;;;;;;27.25;13.57;;;;;;;-5.91;100.00;101061.34;5050037;28;20453;-67
2022/12/13 06:51:26;;;;;;;30.38;12.98;;;;;;;-5.86;100.00;101061.72;5050424;28;20029;-67
2022/12/13 06:53:52;;;;;;;27.15;13.48;;;;;;;-5.86;100.00;101066.84;5050271;28;20035;-67
2022/12/13 06:56:17;;;;;;;32.05;15.20;;;;;;;-5.83;100.00;101062.91;5048399;28;20087;-66
2022/12/13 06:58:43;;;;;;;30.75;14.02;;;;;;;-5.83;100.00;101062.91;5048584;28;20553;-66
2022/12/13 07:01:15;;;;;;;31.10;14.35;;;;;;;-5.89;100.00;101056.34;5043658;28;20029;-68
2022/12/13 07:03:41;;;;;;;32.38;14.32;;;;;;;-5.88;100.00;101051.34;5050027;28;20060;-67
2022/12/13 07:06:08;;;;;;;32.30;15.73;;;;;;;-5.94;100.00;101061.06;5046411;28;20534;-66
2022/12/13 07:08:34;;;;;;;36.33;15.23;;;;;;;-5.99;100.00;101055.59;5044885;28;20033;-67
2022/12/13 07:11:01;;;;;;;36.28;14.50;;;;;;;-5.94;100.00;101059.41;5050043;28;20032;-68
2022/12/13 07:13:26;;;;;;;37.67;15.38;;;;;;;-5.95;100.00;101057.59;5046817;28;20108;-67
2022/12/13 07:15:52;;;;;;;26.38;13.90;;;;;;;-5.99;100.00;101062.38;5049200;28;20112;-67
2022/12/13 07:18:17;;;;;;;32.03;15.27;;;;;;;-6.04;100.00;101066.22;5055774;28;20025;-66
2022/12/13 07:20:43;;;;;;;32.17;12.63;;;;;;;-5.98;100.00;101066.72;5052026;28;20036;-67
2022/12/13 07:23:09;;;;;;;30.27;13.88;;;;;;;-6.07;100.00;101066.84;5050056;28;20025;-67
2022/12/13 07:25:35;;;;;;;33.45;13.55;;;;;;;-6.12;100.00;101069.03;5045537;28;20040;-67
2022/12/13 07:28:04;;;;;;;26.83;12.27;;;;;;;-6.23;100.00;101064.59;5053865;28;20059;-65
2022/12/13 07:30:35;;;;;;;31.92;13.82;;;;;;;-6.27;100.00;101072.78;5054356;28;20079;-68
2022/12/13 07:33:03;;;;;;;40.40;15.25;;;;;;;-6.30;100.00;101078.53;5045056;28;20104;-66
2022/12/13 07:35:29;;;;;;;29.45;13.32;;;;;;;-6.32;100.00;101079.16;5042207;28;20072;-67
2022/12/13 07:37:54;;;;;;;30.63;14.32;;;;;;;-6.22;100.00;101070.66;5044929;28;20420;-67
2022/12/13 07:40:20;;;;;;;32.45;14.07;;;;;;;-6.26;100.00;101074.59;5039025;28;20025;-68
2022/12/13 07:42:49;;;;;;;28.35;13.75;;;;;;;-6.31;100.00;101078.41;5054391;28;20020;-65
2022/12/13 07:45:15;;;;;;;36.88;14.25;;;;;;;-6.31;100.00;101076.75;5053231;28;20039;-67
2022/12/13 07:47:40;;;;;;;39.75;16.10;;;;;;;-6.26;100.00;101079.72;5058273;28;20380;-65
2022/12/13 07:50:06;;;;;;;34.22;14.13;;;;;;;-6.28;100.00;101081.22;5057998;28;20032;-66
2022/12/13 07:52:31;;;;;;;35.50;15.52;;;;;;;-6.22;100.00;101081.78;5054480;28;20103;-69
2022/12/13 07:54:56;;;;;;;34.95;15.82;;;;;;;-6.06;100.00;101078.88;5059080;28;20020;-67
2022/12/13 07:57:22;;;;;;;38.55;16.70;;;;;;;-6.01;100.00;101081.84;5065921;28;20020;-67
2022/12/13 07:59:47;;;;;;;34.88;15.75;;;;;;;-6.07;100.00;101078.75;5059992;28;20053;-68
2022/12/13 08:02:12;;;;;;;39.63;16.25;;;;;;;-6.08;100.00;101075.28;5052487;28;20032;-68
2022/12/13 08:04:38;;;;;;;36.45;16.23;;;;;;;-6.06;100.00;101077.97;5052063;28;20033;-68
2022/12/13 08:07:07;;;;;;;30.15;15.77;;;;;;;-6.04;100.00;101081.56;5057454;28;20028;-67
2022/12/13 08:09:33;;;;;;;34.28;15.85;;;;;;;-6.01;100.00;101081.84;5045195;28;20388;-68
2022/12/13 08:11:58;;;;;;;37.80;16.38;;;;;;;-5.98;100.00;101080.44;5052354;28;20021;-68
2022/12/13 08:14:23;;;;;;;31.45;16.05;;;;;;;-5.95;100.00;101092.59;5048355;28;20091;-67
2022/12/13 08:16:49;;;;;;;48.28;19.40;;;;;;;-5.97;100.00;101087.34;5045028;28;20078;-68
2022/12/13 08:19:14;;;;;;;36.00;17.00;;;;;;;-5.94;100.00;101090.16;5055809;28;20082;-67
2022/12/13 08:21:40;;;;;;;42.78;17.98;;;;;;;-5.81;100.00;101097.22;5059308;28;20483;-67
2022/12/13 08:24:05;;;;;;;78.68;25.60;;;;;;;-5.66;100.00;101095.06;5044082;28;20385;-65
2022/12/13 08:26:31;;;;;;;56.53;19.35;;;;;;;-5.66;100.00;101092.50;5043813;28;20033;-63
2022/12/13 08:28:56;;;;;;;35.90;16.98;;;;;;;-5.65;100.00;101094.31;5056970;28;20039;-65
2022/12/13 08:31:21;;;;;;;36.65;16.95;;;;;;;-5.57;100.00;101101.75;5051470;28;20053;-66
2022/12/13 08:33:48;;;;;;;44.80;17.42;;;;;;;-5.62;100.00;101102.25;5054291;28;20040;-66
2022/12/13 08:36:15;;;;;;;41.20;17.15;;;;;;;-5.59;100.00;101104.19;5053524;28;20031;-65
2022/12/13 08:38:41;;;;;;;38.30;15.27;;;;;;;-5.56;100.00;101104.47;5054301;28;20115;-66
2022/12/13 08:41:07;;;;;;;33.78;16.17;;;;;;;-5.55;100.00;101098.56;5041903;28;20111;-65
2022/12/13 08:43:33;;;;;;;43.35;17.33;;;;;;;-5.45;100.00;101113.97;5047049;28;20056;-66
2022/12/13 08:45:58;;;;;;;33.75;16.35;;;;;;;-5.39;100.00;101107.56;5043142;28;20017;-67
2022/12/13 08:48:24;;;;;;;38.63;17.50;;;;;;;-5.35;100.00;101110.50;5046768;28;20114;-66
2022/12/13 08:50:49;;;;;;;38.05;16.55;;;;;;;-5.31;100.00;101101.41;5037720;28;20174;-67
2022/12/13 08:53:14;;;;;;;40.30;17.13;;;;;;;-5.30;100.00;101101.53;5049111;28;20029;-66
2022/12/13 08:55:40;;;;;;;36.85;17.40;;;;;;;-5.27;100.00;101091.53;5049905;28;20079;-66
2022/12/13 08:58:08;;;;;;;42.88;17.25;;;;;;;-5.18;100.00;101099.09;5052371;28;20024;-66
2022/12/13 09:00:35;;;;;;;36.88;15.95;;;;;;;-5.04;100.00;101097.69;5050654;28;20036;-66
2022/12/13 09:03:03;;;;;;;35.25;17.27;;;;;;;-4.99;100.00;101098.06;5047666;28;20122;-66
2022/12/13 09:05:29;;;;;;;47.03;19.08;;;;;;;-4.89;100.00;101102.31;5056119;28;20036;-66
2022/12/13 09:07:55;;;;;;;34.10;16.38;;;;;;;-4.84;100.00;101104.47;5049953;28;20029;-65
2022/12/13 09:10:21;;;;;;;45.75;17.40;;;;;;;-4.81;100.00;101103.81;5052309;28;20029;-67
2022/12/13 09:12:47;;;;;;;39.92;17.88;;;;;;;-4.71;100.00;101102.91;5043222;28;20040;-66
2022/12/13 09:15:12;;;;;;;36.00;18.00;;;;;;;-4.71;100.00;101103.78;5065283;28;20032;-66
2022/12/13 09:17:38;;;;;;;42.65;18.65;;;;;;;-4.66;100.00;101104.19;5047977;28;20594;-67
2022/12/13 09:20:09;;;;;;;45.13;19.52;;;;;;;-4.60;100.00;101099.53;5048860;28;20031;-65
2022/12/13 09:22:35;;;;;;;41.17;17.67;;;;;;;-4.55;100.00;101098.25;5048052;28;20041;-66
2022/12/13 09:25:01;;;;;;;33.10;16.73;;;;;;;-4.50;100.00;101094.38;5048526;28;20036;-66
2022/12/13 09:27:27;;;;;;;36.97;16.98;;;;;;;-4.47;100.00;101089.47;5047079;28;20021;-66
2022/12/13 09:29:52;;;;;;;37.38;17.42;;;;;;;-4.37;100.00;101098.81;5056368;28;20031;-67
2022/12/13 09:32:18;;;;;;;43.60;19.65;;;;;;;-4.30;100.00;101100.22;5045688;28;20041;-67
2022/12/13 09:34:44;;;;;;;44.17;19.42;;;;;;;-4.19;100.00;101104.56;5053895;28;20035;-67
2022/12/13 09:37:12;;;;;;;46.38;20.20;;;;;;;-4.09;100.00;101098.47;5056775;28;20044;-67
2022/12/13 09:39:38;;;;;;;44.15;19.88;;;;;;;-4.02;100.00;101099.84;5044579;28;20041;-67
2022/12/13 09:42:09;;;;;;;44.40;18.42;;;;;;;-3.98;100.00;101105.34;5054096;28;20056;-67
2022/12/13 09:44:41;;;;;;;35.53;18.45;;;;;;;-3.85;100.00;101109.78;5055946;28;20033;-67
2022/12/13 09:47:14;;;;;;;38.70;18.25;;;;;;;-3.75;100.00;101106.25;5056522;28;20024;-66
2022/12/13 09:49:43;;;;;;;37.42;19.13;;;;;;;-3.68;100.00;101103.38;5071591;28;20032;-66
2022/12/13 09:52:15;;;;;;;39.70;17.10;;;;;;;-3.56;100.00;101106.00;5070864;28;20024;-67
2022/12/13 09:54:40;;;;;;;44.65;19.90;;;;;;;-3.53;100.00;101100.22;5058564;28;20106;-66
2022/12/13 09:57:21;;;;;;;42.08;18.85;;;;;;;-3.48;100.00;101098.91;5062709;28;20063;-66
2022/12/13 09:59:47;;;;;;;38.58;17.75;;;;;;;-3.40;100.00;101106.41;5052776;28;20076;-66
2022/12/13 10:02:30;;;;;;;42.50;18.70;;;;;;;-3.32;100.00;101099.28;5054734;28;20048;-67
2022/12/13 10:05:14;;;;;;;47.75;20.92;;;;;;;-3.18;100.00;101087.47;5042514;28;20060;-66
2022/12/13 10:07:40;;;;;;;43.40;19.55;;;;;;;-3.05;100.00;101092.75;5054200;28;20025;-67
2022/12/13 10:10:05;;;;;;;35.25;17.92;;;;;;;-2.95;100.00;101085.72;5054344;28;20051;-66
2022/12/13 10:12:34;;;;;;;34.95;18.33;;;;;;;-2.83;100.00;101078.91;5036178;28;20037;-66
2022/12/13 10:15:01;;;;;;;43.95;19.70;;;;;;;-2.61;100.00;101072.75;5049466;28;20107;-67
2022/12/13 10:17:33;;;;;;;41.42;19.83;;;;;;;-2.32;100.00;101076.53;5055088;28;20016;-66
2022/12/13 10:19:59;;;;;;;41.63;19.80;;;;;;;-1.96;100.00;101078.28;5050902;28;20029;-67
2022/12/13 10:22:24;;;;;;;44.13;19.75;;;;;;;-1.70;100.00;101074.97;5052056;28;20024;-67
2022/12/13 10:24:55;;;;;;;49.13;21.23;;;;;;;-1.38;100.00;101073.69;5055136;28;20028;-67
2022/12/13 10:27:44;;;;;;;35.97;18.13;;;;;;;-1.16;100.00;101066.50;5057045;28;20143;-66
2022/12/13 10:30:25;;;;;;;38.92;17.83;;;;;;;-0.82;100.00;101067.06;5071586;28;20074;-66
2022/12/13 10:32:58;;;;;;;37.92;19.45;;;;;;;-0.77;100.00;101052.75;5040375;28;20658;-67
2022/12/13 10:35:23;;;;;;;33.55;19.92;;;;;;;-0.77;100.00;101047.59;5052450;28;20468;-66
2022/12/13 10:37:49;;;;;;;41.00;19.92;;;;;;;-0.43;100.00;101054.94;5056624;28;20029;-68
2022/12/13 10:40:45;;;;;;;38.38;19.25;;;;;;;-0.49;100.00;101046.78;5047861;28;20024;-67
2022/12/13 10:43:15;;;;;;;33.65;18.63;;;;;;;-0.54;100.00;101050.78;5055530;28;20131;-66
2022/12/13 10:45:43;;;;;;;33.80;18.13;;;;;;;-0.68;100.00;101048.19;5051218;28;20025;-66
2022/12/13 10:48:20;;;;;;;32.72;17.58;;;;;;;-0.74;100.00;101052.94;5047911;28;20029;-67
2022/12/13 10:51:00;;;;;;;35.35;18.55;;;;;;;-0.75;100.00;101048.56;5055543;28;20028;-65
2022/12/13 10:53:32;;;;;;;34.88;18.65;;;;;;;-0.51;100.00;101040.63;5051065;28;20078;-66
2022/12/13 10:55:59;;;;;;;46.45;20.33;;;;;;;-0.35;100.00;101040.81;5053238;28;20039;-67
2022/12/13 10:58:38;;;;;;;40.03;20.15;;;;;;;-0.03;100.00;101041.03;5050598;28;20492;-66
2022/12/13 11:01:36;;;;;;;36.33;19.52;;;;;;;0.29;100.00;101034.38;5052191;28;20024;-68
2022/12/13 11:04:23;;;;;;;38.55;18.15;;;;;;;0.03;100.00;101032.75;5049203;28;20044;-67
2022/12/13 11:06:48;;;;;;;38.53;19.40;;;;;;;-0.05;100.00;101034.91;5060255;28;20037;-66
2022/12/13 11:09:22;;;;;;;39.83;19.33;;;;;;;-0.17;100.00;101027.25;5055441;28;20036;-66
2022/12/13 11:11:50;;;;;;;40.22;18.92;;;;;;;-0.24;100.00;101030.25;5051509;28;20052;-67
2022/12/13 11:14:19;;;;;;;37.22;18.70;;;;;;;-0.43;100.00;101038.56;5050789;28;20392;-68